Time;durP1;ratioP1;P1;durP2;ratioP2;P2;SDS_P1;SDS_P2;PMS_P1;PMS_P2;Temp;Humidity;BMP_temperature;BMP_pressure;BME280_temperature;BME280_humidity;BME280_pressure;Samples;Min_cycle;Max_cycle;Signal;HPM_P1;HPM_P2
2023/10/28 00:01:47;;;;;;;10.55;7.53;;;11.90;99.90;;;;;;5054843;28;20052;-74
2023/10/28 00:04:34;;;;;;;11.00;7.28;;;11.90;99.90;;;;;;5054307;28;20394;-76
2023/10/28 00:07:20;;;;;;;10.93;7.93;;;11.90;99.90;;;;;;5070403;28;20052;-74
2023/10/28 00:10:07;;;;;;;11.23;8.15;;;11.90;99.90;;;;;;5070170;28;20418;-75
2023/10/28 00:12:53;;;;;;;10.80;7.72;;;11.90;99.90;;;;;;5074476;28;20068;-75
2023/10/28 00:15:39;;;;;;;10.98;7.25;;;11.80;99.90;;;;;;5073883;28;20107;-74
2023/10/28 00:18:25;;;;;;;9.07;7.25;;;11.90;99.90;;;;;;5065535;28;20044;-73
2023/10/28 00:21:11;;;;;;;8.80;6.78;;;11.80;99.90;;;;;;5074912;28;20489;-74
2023/10/28 00:23:57;;;;;;;10.85;7.55;;;11.90;99.90;;;;;;5071543;28;20413;-75
2023/10/28 00:26:43;;;;;;;9.75;6.32;;;11.90;99.90;;;;;;5053594;28;20041;-76
2023/10/28 00:29:29;;;;;;;9.82;6.75;;;11.90;99.90;;;;;;5072532;28;20044;-76
2023/10/28 00:32:15;;;;;;;11.07;6.95;;;11.90;99.90;;;;;;5073683;28;20037;-76
2023/10/28 00:35:01;;;;;;;10.88;6.68;;;11.90;99.90;;;;;;5050911;28;20053;-68
2023/10/28 00:37:47;;;;;;;9.00;6.50;;;11.90;99.90;;;;;;5052911;28;20076;-68
2023/10/28 00:40:33;;;;;;;9.18;6.55;;;11.90;99.90;;;;;;5050011;28;20091;-68
2023/10/28 00:43:22;;;;;;;10.98;7.30;;;11.80;99.90;;;;;;5053313;28;20410;-69
2023/10/28 00:46:08;;;;;;;9.02;6.97;;;11.80;99.90;;;;;;5064447;28;20024;-69
2023/10/28 00:48:55;;;;;;;8.55;6.78;;;11.80;99.90;;;;;;5071864;28;20040;-69
2023/10/28 00:51:43;;;;;;;8.70;6.10;;;11.80;99.90;;;;;;5068394;28;20041;-76
2023/10/28 00:54:29;;;;;;;8.60;6.35;;;11.80;99.90;;;;;;5079031;28;20032;-76
2023/10/28 00:57:17;;;;;;;10.48;7.18;;;11.80;99.90;;;;;;5081717;28;20564;-76
2023/10/28 01:00:06;;;;;;;9.35;6.47;;;11.80;99.90;;;;;;5060031;28;20045;-77
2023/10/28 01:02:52;;;;;;;8.70;5.90;;;11.90;99.90;;;;;;5053270;28;20498;-73
2023/10/28 01:05:39;;;;;;;9.55;6.57;;;11.80;99.90;;;;;;5067267;28;20036;-74
2023/10/28 01:08:25;;;;;;;11.00;7.22;;;11.80;99.90;;;;;;5053081;28;20064;-72
2023/10/28 01:11:14;;;;;;;9.73;7.00;;;11.80;99.90;;;;;;5061122;28;20112;-73
2023/10/28 01:14:00;;;;;;;9.52;6.85;;;11.80;99.90;;;;;;5059266;28;20093;-74
2023/10/28 01:16:46;;;;;;;8.27;5.60;;;11.80;99.90;;;;;;5058764;28;20060;-72
2023/10/28 01:19:34;;;;;;;9.02;6.32;;;11.80;99.90;;;;;;5053801;28;20297;-73
2023/10/28 01:22:21;;;;;;;8.80;5.93;;;11.90;99.90;;;;;;5054369;28;20119;-75
2023/10/28 01:25:07;;;;;;;9.05;6.03;;;11.80;99.90;;;;;;5053279;28;20049;-75
2023/10/28 01:27:53;;;;;;;9.50;6.53;;;11.80;99.90;;;;;;5053068;28;20033;-76
2023/10/28 01:30:39;;;;;;;8.45;6.30;;;11.80;99.90;;;;;;5071542;28;20490;-75
2023/10/28 01:33:25;;;;;;;8.90;6.30;;;11.80;99.90;;;;;;5058590;28;20041;-75
2023/10/28 01:36:11;;;;;;;10.25;7.05;;;11.80;99.90;;;;;;5053108;28;20052;-75
2023/10/28 01:38:57;;;;;;;9.35;6.63;;;11.80;99.90;;;;;;5052879;28;20040;-75
2023/10/28 01:41:43;;;;;;;8.63;5.78;;;11.90;99.90;;;;;;5052262;28;20037;-74
2023/10/28 01:44:34;;;;;;;8.57;5.85;;;11.80;99.90;;;;;;5058282;28;20068;-74
2023/10/28 01:47:19;;;;;;;9.45;6.35;;;11.80;99.90;;;;;;5051334;28;20397;-74
2023/10/28 01:50:06;;;;;;;8.93;5.93;;;11.80;99.90;;;;;;5037322;28;20090;-74
2023/10/28 01:52:52;;;;;;;9.70;6.38;;;11.80;99.90;;;;;;5060508;28;20143;-75
2023/10/28 01:55:39;;;;;;;9.23;6.55;;;11.80;99.90;;;;;;5052414;28;20065;-74
2023/10/28 01:58:26;;;;;;;8.18;6.38;;;11.80;99.90;;;;;;5057703;28;20500;-74
2023/10/28 02:01:12;;;;;;;7.28;4.78;;;11.80;99.90;;;;;;5064172;28;20037;-73
2023/10/28 02:03:58;;;;;;;7.30;4.60;;;11.90;99.90;;;;;;5061030;28;20071;-73
2023/10/28 02:06:44;;;;;;;6.28;4.82;;;11.80;99.90;;;;;;5051062;28;20052;-74
2023/10/28 02:09:33;;;;;;;9.07;4.85;;;11.80;99.90;;;;;;5052938;28;20045;-73
2023/10/28 02:12:19;;;;;;;7.70;5.82;;;11.80;99.90;;;;;;5053103;28;20041;-73
2023/10/28 02:15:07;;;;;;;6.65;5.03;;;11.90;99.90;;;;;;5071660;28;20070;-74
2023/10/28 02:17:54;;;;;;;6.25;4.32;;;11.80;99.90;;;;;;5052156;28;20088;-74
2023/10/28 02:20:41;;;;;;;8.23;5.28;;;11.80;99.90;;;;;;5053696;28;20033;-74
2023/10/28 02:23:26;;;;;;;6.70;5.03;;;11.80;99.90;;;;;;5058964;28;20410;-75
2023/10/28 02:26:13;;;;;;;9.23;5.38;;;11.80;99.90;;;;;;5052768;28;20380;-75
2023/10/28 02:29:00;;;;;;;7.35;4.57;;;11.70;99.90;;;;;;5055263;28;20402;-74
2023/10/28 02:31:48;;;;;;;5.78;4.15;;;11.70;99.90;;;;;;5054424;28;20123;-75
2023/10/28 02:34:34;;;;;;;6.30;4.25;;;11.70;99.90;;;;;;5066676;28;20418;-75
2023/10/28 02:37:20;;;;;;;6.45;3.90;;;11.70;99.90;;;;;;5071441;28;20094;-75
2023/10/28 02:40:08;;;;;;;7.78;4.93;;;11.70;99.90;;;;;;5071041;28;20123;-74
2023/10/28 02:42:55;;;;;;;6.85;4.85;;;11.70;99.90;;;;;;5066772;28;20532;-76
2023/10/28 02:45:41;;;;;;;5.90;3.88;;;11.70;99.90;;;;;;5051154;28;20498;-79
2023/10/28 02:48:27;;;;;;;5.43;4.15;;;11.70;99.90;;;;;;5051221;28;20041;-78
2023/10/28 02:51:13;;;;;;;6.70;4.03;;;11.60;99.90;;;;;;5060004;28;20074;-78
2023/10/28 02:54:01;;;;;;;5.97;4.32;;;11.60;99.90;;;;;;5063879;28;20049;-78
2023/10/28 02:56:47;;;;;;;5.50;4.30;;;11.60;99.90;;;;;;5054267;28;20049;-75
2023/10/28 02:59:33;;;;;;;7.00;3.90;;;11.60;99.90;;;;;;5056143;28;20068;-75
2023/10/28 03:02:19;;;;;;;5.50;3.90;;;11.60;99.90;;;;;;5050254;28;20075;-75
2023/10/28 03:05:05;;;;;;;5.60;3.88;;;11.60;99.90;;;;;;5052609;28;20041;-75
2023/10/28 03:07:51;;;;;;;5.20;3.92;;;11.60;99.90;;;;;;5049707;28;20191;-70
2023/10/28 03:10:37;;;;;;;4.72;3.53;;;11.60;99.90;;;;;;5050321;28;20045;-74
2023/10/28 03:13:23;;;;;;;5.75;3.97;;;11.50;99.90;;;;;;5057764;28;20033;-76
2023/10/28 03:16:09;;;;;;;6.05;3.75;;;11.60;99.90;;;;;;5051667;28;20055;-77
2023/10/28 03:18:56;;;;;;;6.85;4.60;;;11.50;99.90;;;;;;5050783;28;20469;-76
2023/10/28 03:21:42;;;;;;;5.97;3.92;;;11.60;99.90;;;;;;5050693;28;20052;-76
2023/10/28 03:24:28;;;;;;;5.93;3.70;;;11.60;99.90;;;;;;5051128;28;20091;-75
2023/10/28 03:27:14;;;;;;;5.32;3.90;;;11.60;99.90;;;;;;5057824;28;20132;-76
2023/10/28 03:30:00;;;;;;;5.60;3.90;;;11.50;99.90;;;;;;5062743;28;20128;-75
2023/10/28 03:32:47;;;;;;;4.78;3.40;;;11.50;99.90;;;;;;5068959;28;20052;-75
2023/10/28 03:35:33;;;;;;;4.57;3.38;;;11.60;99.90;;;;;;5067111;28;20518;-75
2023/10/28 03:38:19;;;;;;;4.38;3.05;;;11.50;99.90;;;;;;5056609;28;20127;-75
2023/10/28 03:41:10;;;;;;;5.03;3.55;;;11.50;99.90;;;;;;5051042;28;20048;-76
2023/10/28 03:43:56;;;;;;;4.97;3.58;;;11.50;99.90;;;;;;5050810;28;20029;-76
2023/10/28 03:46:42;;;;;;;4.18;3.10;;;11.50;99.90;;;;;;5051376;28;20048;-75
2023/10/28 03:49:28;;;;;;;5.40;3.60;;;11.50;99.90;;;;;;5063392;28;20151;-75
2023/10/28 03:52:14;;;;;;;4.15;3.08;;;11.50;99.90;;;;;;5071093;28;20060;-75
2023/10/28 03:55:00;;;;;;;6.07;2.92;;;11.50;99.90;;;;;;5053266;28;20204;-76
2023/10/28 03:57:46;;;;;;;4.55;3.15;;;11.50;99.90;;;;;;5080466;28;20045;-77
2023/10/28 04:00:33;;;;;;;4.60;2.95;;;11.50;99.90;;;;;;5083460;28;20067;-76
2023/10/28 04:03:20;;;;;;;4.25;2.78;;;11.50;99.90;;;;;;5073030;28;20045;-77
2023/10/28 04:06:06;;;;;;;4.03;2.58;;;11.50;99.90;;;;;;5061014;28;20466;-76
2023/10/28 04:08:52;;;;;;;3.80;2.58;;;11.50;99.90;;;;;;5028235;28;1118175;-76
2023/10/28 04:11:38;;;;;;;3.92;2.53;;;11.50;99.90;;;;;;5065566;28;20047;-76
2023/10/28 04:14:24;;;;;;;4.03;2.60;;;11.50;99.90;;;;;;5070815;28;20036;-77
2023/10/28 04:17:11;;;;;;;3.45;2.60;;;11.50;99.90;;;;;;5073738;28;20120;-76
2023/10/28 04:19:58;;;;;;;3.10;2.30;;;11.50;99.90;;;;;;5066828;28;20037;-77
2023/10/28 04:22:44;;;;;;;3.33;2.38;;;11.40;99.90;;;;;;5040156;28;20052;-77
2023/10/28 04:25:30;;;;;;;4.00;2.40;;;11.40;99.90;;;;;;5039730;28;20056;-75
2023/10/28 04:28:16;;;;;;;3.55;2.45;;;11.40;99.90;;;;;;5050309;28;20048;-79
2023/10/28 04:31:02;;;;;;;2.90;2.17;;;11.40;99.90;;;;;;5056667;28;20083;-77
2023/10/28 04:33:48;;;;;;;3.17;2.30;;;11.40;99.90;;;;;;5073282;28;20047;-76
2023/10/28 04:36:34;;;;;;;5.00;3.08;;;11.40;99.90;;;;;;5073510;28;20482;-76
2023/10/28 04:39:23;;;;;;;4.78;2.30;;;11.30;99.90;;;;;;5047957;28;20291;-77
2023/10/28 04:42:10;;;;;;;3.47;2.65;;;11.30;99.90;;;;;;5061365;28;20037;-77
2023/10/28 04:44:56;;;;;;;4.30;3.05;;;11.40;99.90;;;;;;5069257;28;20375;-76
2023/10/28 04:47:42;;;;;;;5.30;3.55;;;11.40;99.90;;;;;;5053192;28;20040;-77
2023/10/28 04:50:30;;;;;;;4.90;3.25;;;11.30;99.90;;;;;;5055583;28;20041;-76
2023/10/28 04:53:15;;;;;;;6.20;4.00;;;11.30;99.90;;;;;;5054093;28;20044;-77
2023/10/28 04:56:01;;;;;;;5.72;3.35;;;11.30;99.90;;;;;;5053856;28;20049;-77
2023/10/28 04:58:47;;;;;;;5.40;3.50;;;11.30;99.90;;;;;;5066461;28;20413;-76
2023/10/28 05:01:33;;;;;;;4.47;2.97;;;11.30;99.90;;;;;;5062588;28;20433;-76
2023/10/28 05:04:19;;;;;;;6.53;3.65;;;11.40;99.90;;;;;;5073153;28;20033;-77
2023/10/28 05:07:05;;;;;;;4.82;3.33;;;11.30;99.90;;;;;;5053564;28;20037;-76
2023/10/28 05:09:51;;;;;;;4.75;2.90;;;11.30;99.90;;;;;;5054095;28;20044;-76
2023/10/28 05:12:39;;;;;;;5.43;3.00;;;11.20;99.90;;;;;;5058209;28;20068;-76
2023/10/28 05:15:24;;;;;;;3.80;2.95;;;11.30;99.90;;;;;;5052039;28;20060;-76
2023/10/28 05:18:10;;;;;;;3.95;2.80;;;11.30;99.90;;;;;;5052869;28;20037;-75
2023/10/28 05:20:56;;;;;;;4.60;3.50;;;11.30;99.90;;;;;;5052815;28;20048;-75
2023/10/28 05:23:43;;;;;;;4.43;3.25;;;11.30;99.90;;;;;;5055182;28;20037;-76
2023/10/28 05:26:29;;;;;;;4.22;3.03;;;11.40;99.90;;;;;;5057854;28;20131;-75
2023/10/28 05:29:16;;;;;;;4.22;3.10;;;11.40;99.90;;;;;;5071066;28;20043;-76
2023/10/28 05:32:02;;;;;;;3.60;2.67;;;11.40;99.90;;;;;;5059733;28;20405;-75
2023/10/28 05:34:48;;;;;;;4.65;3.40;;;11.30;99.90;;;;;;5052560;28;20038;-75
2023/10/28 05:37:34;;;;;;;5.10;3.38;;;11.30;99.90;;;;;;5038855;28;20032;-74
2023/10/28 05:40:20;;;;;;;4.28;3.47;;;11.30;99.90;;;;;;5052904;28;20124;-75
2023/10/28 05:43:07;;;;;;;4.10;2.97;;;11.30;99.90;;;;;;5043807;28;20444;-75
2023/10/28 05:45:53;;;;;;;4.18;2.97;;;11.30;99.90;;;;;;5057087;28;20051;-76
2023/10/28 05:48:39;;;;;;;4.45;3.00;;;11.20;99.90;;;;;;5060852;28;20544;-76
2023/10/28 05:51:25;;;;;;;4.45;3.03;;;11.20;99.90;;;;;;5053203;28;20045;-75
2023/10/28 05:54:11;;;;;;;5.18;3.40;;;11.10;99.90;;;;;;5059234;28;20136;-74
2023/10/28 05:56:58;;;;;;;5.15;3.60;;;11.10;99.90;;;;;;5057900;28;20430;-74
2023/10/28 05:59:44;;;;;;;6.10;3.95;;;11.10;99.90;;;;;;5056818;28;20383;-75
2023/10/28 06:02:30;;;;;;;6.13;4.50;;;11.10;99.90;;;;;;5052422;28;20055;-74
2023/10/28 06:05:19;;;;;;;5.35;3.95;;;11.10;99.90;;;;;;5061078;28;20040;-72
2023/10/28 06:08:07;;;;;;;6.35;4.97;;;11.10;99.90;;;;;;5083727;28;20098;-75
2023/10/28 06:10:53;;;;;;;5.60;3.97;;;11.10;99.90;;;;;;5083888;28;20047;-71
2023/10/28 06:13:39;;;;;;;5.70;4.13;;;11.10;99.90;;;;;;5051773;28;20045;-75
2023/10/28 06:16:25;;;;;;;7.97;5.13;;;11.10;99.90;;;;;;5055645;28;20041;-76
2023/10/28 06:19:11;;;;;;;6.95;4.28;;;11.10;99.90;;;;;;5055679;28;20486;-74
2023/10/28 06:22:01;;;;;;;5.95;4.10;;;11.20;99.90;;;;;;5053931;28;20590;-78
2023/10/28 06:24:47;;;;;;;7.15;4.55;;;11.10;99.90;;;;;;5059172;28;20044;-77
2023/10/28 06:27:35;;;;;;;6.68;4.57;;;11.10;99.90;;;;;;5050473;28;20157;-78
2023/10/28 06:30:20;;;;;;;6.18;3.80;;;11.20;99.90;;;;;;5056007;28;20041;-78
2023/10/28 06:33:06;;;;;;;7.30;4.88;;;11.20;99.90;;;;;;5065311;28;20108;-78
2023/10/28 06:35:52;;;;;;;6.63;4.75;;;11.20;99.90;;;;;;5054760;28;20061;-71
2023/10/28 06:38:40;;;;;;;7.65;5.22;;;11.20;99.90;;;;;;5057155;28;20037;-73
2023/10/28 06:41:26;;;;;;;5.95;4.13;;;11.30;99.90;;;;;;5050569;28;20123;-72
2023/10/28 06:44:11;;;;;;;5.63;4.10;;;11.30;99.90;;;;;;5041420;28;20124;-71
2023/10/28 06:46:58;;;;;;;5.32;4.18;;;11.40;99.90;;;;;;5062896;28;20557;-71
2023/10/28 06:49:44;;;;;;;6.20;4.07;;;11.40;99.90;;;;;;5056620;28;20037;-72
2023/10/28 06:52:30;;;;;;;7.75;5.50;;;11.50;99.90;;;;;;5059911;28;20052;-73
2023/10/28 06:55:17;;;;;;;5.78;4.57;;;11.50;99.90;;;;;;5040433;28;20051;-74
2023/10/28 06:58:03;;;;;;;5.55;4.30;;;11.50;99.90;;;;;;5052831;28;20041;-73
2023/10/28 07:00:49;;;;;;;4.85;3.83;;;11.60;99.90;;;;;;5055109;28;20041;-73
2023/10/28 07:03:40;;;;;;;5.80;4.18;;;11.50;99.90;;;;;;5074639;28;20062;-73
2023/10/28 07:06:26;;;;;;;5.47;4.25;;;11.60;99.90;;;;;;5071948;28;20036;-74
2023/10/28 07:09:12;;;;;;;5.25;3.80;;;11.60;99.90;;;;;;5055203;28;20076;-74
2023/10/28 07:11:58;;;;;;;5.07;3.90;;;11.70;99.90;;;;;;5063459;28;20096;-72
2023/10/28 07:14:44;;;;;;;6.22;4.43;;;11.70;99.90;;;;;;5060229;28;20043;-73
2023/10/28 07:17:30;;;;;;;4.90;3.78;;;11.70;99.90;;;;;;5045839;28;20126;-73
2023/10/28 07:20:19;;;;;;;6.35;4.68;;;11.80;99.90;;;;;;5051704;28;20086;-74
2023/10/28 07:23:05;;;;;;;5.30;4.03;;;11.80;99.90;;;;;;5056885;28;20045;-74
2023/10/28 07:25:51;;;;;;;6.43;4.55;;;11.80;99.90;;;;;;5044580;28;20498;-73
2023/10/28 07:28:37;;;;;;;6.32;4.35;;;11.80;99.90;;;;;;5059745;28;20501;-74
2023/10/28 07:31:23;;;;;;;6.88;5.25;;;11.90;99.90;;;;;;5057558;28;20037;-77
2023/10/28 07:34:09;;;;;;;6.25;4.95;;;11.80;99.90;;;;;;5064638;28;20049;-76
2023/10/28 07:36:58;;;;;;;6.25;4.65;;;11.90;99.90;;;;;;5037142;28;20057;-75
2023/10/28 07:39:44;;;;;;;5.25;4.00;;;12.00;99.90;;;;;;5051678;28;20048;-76
2023/10/28 07:42:31;;;;;;;7.97;5.18;;;12.00;99.90;;;;;;5062548;28;20176;-77
2023/10/28 07:45:17;;;;;;;5.95;4.70;;;12.00;99.90;;;;;;5052841;28;20040;-76
2023/10/28 07:48:04;;;;;;;7.85;5.28;;;12.00;99.90;;;;;;5052181;28;20037;-76
2023/10/28 07:50:51;;;;;;;7.90;4.60;;;12.00;99.90;;;;;;5056203;28;20514;-76
2023/10/28 07:53:37;;;;;;;6.88;4.63;;;12.10;99.90;;;;;;5055561;28;20037;-75
2023/10/28 07:56:23;;;;;;;7.18;5.25;;;12.10;99.90;;;;;;5065062;28;20048;-74
2023/10/28 07:59:11;;;;;;;8.75;4.78;;;12.10;99.90;;;;;;5061249;28;20446;-73
2023/10/28 08:01:58;;;;;;;5.85;4.45;;;12.10;99.90;;;;;;5067924;28;20055;-73
2023/10/28 08:04:44;;;;;;;7.53;5.20;;;12.10;99.90;;;;;;5054690;28;20037;-74
2023/10/28 08:07:30;;;;;;;8.15;5.55;;;12.10;99.90;;;;;;5071108;28;20056;-74
2023/10/28 08:10:22;;;;;;;6.93;5.28;;;12.20;99.90;;;;;;5076693;28;20309;-74
2023/10/28 08:13:08;;;;;;;7.25;5.22;;;12.20;99.90;;;;;;5073261;28;20037;-74
2023/10/28 08:15:54;;;;;;;8.05;5.47;;;12.20;99.90;;;;;;5061075;28;20071;-74
2023/10/28 08:18:40;;;;;;;7.13;6.10;;;12.20;99.90;;;;;;5059436;28;20474;-76
2023/10/28 08:21:27;;;;;;;9.40;6.60;;;12.30;99.90;;;;;;5058345;28;20040;-78
2023/10/28 08:24:15;;;;;;;8.00;5.55;;;12.30;99.90;;;;;;5063066;28;20047;-78
2023/10/28 08:27:01;;;;;;;9.02;6.72;;;12.20;99.90;;;;;;5063145;28;20079;-73
2023/10/28 08:29:48;;;;;;;8.43;6.35;;;12.30;99.90;;;;;;5073877;28;20489;-75
2023/10/28 08:32:34;;;;;;;9.32;5.95;;;12.30;99.90;;;;;;5054519;28;20057;-70
2023/10/28 08:35:20;;;;;;;10.40;6.25;;;12.40;99.90;;;;;;5051395;28;20052;-75
2023/10/28 08:38:06;;;;;;;8.18;5.97;;;12.40;99.90;;;;;;5055798;28;20127;-73
2023/10/28 08:40:53;;;;;;;7.97;6.05;;;12.50;99.90;;;;;;5076462;28;20060;-73
2023/10/28 08:43:39;;;;;;;7.75;5.90;;;12.50;99.90;;;;;;5064843;28;20029;-77
2023/10/28 08:46:26;;;;;;;8.27;5.88;;;12.50;99.90;;;;;;5053201;28;20108;-77
2023/10/28 08:49:15;;;;;;;7.93;5.90;;;12.60;99.90;;;;;;5068645;28;20536;-77
2023/10/28 08:52:02;;;;;;;8.07;5.53;;;12.60;99.90;;;;;;5065641;28;20460;-75
2023/10/28 08:54:48;;;;;;;8.82;5.93;;;12.70;99.90;;;;;;5056085;28;20312;-77
2023/10/28 08:57:37;;;;;;;11.18;7.88;;;12.80;99.90;;;;;;5073325;28;20056;-77
2023/10/28 09:00:26;;;;;;;10.90;7.43;;;12.90;99.90;;;;;;5072234;28;20076;-77
2023/10/28 09:03:13;;;;;;;10.80;8.00;;;12.90;99.90;;;;;;5072854;28;20197;-76
2023/10/28 09:06:02;;;;;;;10.02;8.18;;;12.80;99.90;;;;;;5073190;28;20040;-77
2023/10/28 09:08:49;;;;;;;9.75;7.07;;;12.80;99.90;;;;;;5072322;28;20178;-76
2023/10/28 09:11:36;;;;;;;9.75;7.85;;;12.90;99.90;;;;;;5055783;28;20517;-73
2023/10/28 09:14:22;;;;;;;12.13;7.32;;;12.90;99.90;;;;;;5053383;28;20048;-74
2023/10/28 09:17:09;;;;;;;9.77;7.50;;;12.90;99.90;;;;;;5053705;28;20112;-73
2023/10/28 09:19:56;;;;;;;9.07;7.50;;;12.90;99.90;;;;;;5053457;28;20576;-74
2023/10/28 09:22:44;;;;;;;8.68;6.88;;;13.00;99.90;;;;;;5053057;28;20403;-74
2023/10/28 09:25:30;;;;;;;11.05;7.63;;;12.90;99.90;;;;;;5053441;28;20043;-74
2023/10/28 09:28:16;;;;;;;9.32;7.38;;;13.00;99.90;;;;;;5058195;28;20059;-73
2023/10/28 09:31:05;;;;;;;10.18;8.05;;;13.00;99.90;;;;;;5052751;28;20045;-73
2023/10/28 09:33:57;;;;;;;10.38;7.22;;;13.00;99.90;;;;;;5039310;28;20079;-73
2023/10/28 09:36:53;;;;;;;10.65;7.50;;;13.00;99.90;;;;;;5030476;28;20068;-74
2023/10/28 09:39:53;;;;;;;11.05;8.25;;;13.10;99.90;;;;;;5065631;28;20029;-76
2023/10/28 09:42:39;;;;;;;8.17;6.80;;;13.10;99.90;;;;;;5056132;28;20447;-77
2023/10/28 09:45:25;;;;;;;9.55;7.18;;;13.20;99.90;;;;;;5042781;28;20082;-77
2023/10/28 09:48:15;;;;;;;10.13;7.97;;;13.20;99.90;;;;;;5052937;28;20421;-77
2023/10/28 09:51:01;;;;;;;10.57;8.23;;;13.20;99.90;;;;;;5055470;28;20075;-77
2023/10/28 09:53:58;;;;;;;10.90;7.80;;;13.30;99.90;;;;;;5054445;28;20100;-77
2023/10/28 09:56:47;;;;;;;9.88;7.55;;;13.40;99.90;;;;;;5053894;28;20051;-77
2023/10/28 09:59:37;;;;;;;9.50;7.07;;;13.50;99.90;;;;;;5054071;28;20033;-78
2023/10/28 10:02:51;;;;;;;11.07;8.40;;;13.60;99.90;;;;;;5059030;28;20119;-77
2023/10/28 10:05:42;;;;;;;8.23;6.95;;;13.60;99.90;;;;;;5072567;28;20036;-77
2023/10/28 10:08:28;;;;;;;10.43;8.32;;;13.60;99.90;;;;;;5072067;28;20056;-77
2023/10/28 10:11:23;;;;;;;10.05;7.82;;;13.60;99.90;;;;;;5063383;28;20066;-77
2023/10/28 10:14:10;;;;;;;9.65;8.05;;;13.70;99.90;;;;;;5068838;28;20032;-77
2023/10/28 10:17:03;;;;;;;10.10;7.85;;;13.70;99.90;;;;;;5072166;28;20044;-78
2023/10/28 10:19:49;;;;;;;9.57;7.43;;;13.80;99.90;;;;;;5065439;28;20075;-77
2023/10/28 10:22:38;;;;;;;12.35;8.25;;;13.90;99.90;;;;;;5053149;28;20048;-77
2023/10/28 10:25:41;;;;;;;10.05;8.55;;;13.90;99.90;;;;;;5057499;28;20104;-77
2023/10/28 10:28:27;;;;;;;10.73;7.07;;;14.00;99.90;;;;;;5072194;28;20037;-77
2023/10/28 10:31:16;;;;;;;9.65;8.38;;;14.00;99.90;;;;;;5057065;28;20044;-81
2023/10/28 10:34:06;;;;;;;10.70;8.57;;;14.20;99.90;;;;;;5072234;28;20347;-77
2023/10/28 10:36:52;;;;;;;12.82;8.10;;;14.20;99.90;;;;;;5071909;28;20438;-73
2023/10/28 10:39:51;;;;;;;12.15;9.07;;;14.30;99.90;;;;;;5071972;28;20033;-73
2023/10/28 10:42:38;;;;;;;11.43;8.73;;;14.30;99.90;;;;;;5070718;28;20362;-74
2023/10/28 10:45:24;;;;;;;10.20;7.65;;;14.40;99.90;;;;;;5070623;28;20451;-74
2023/10/28 10:48:10;;;;;;;9.82;8.27;;;14.40;99.90;;;;;;5072558;28;20041;-73
2023/10/28 10:50:57;;;;;;;9.77;7.80;;;14.40;99.90;;;;;;5069993;28;20098;-73
2023/10/28 10:53:44;;;;;;;9.68;7.00;;;14.50;99.90;;;;;;5052074;28;20525;-74
2023/10/28 10:56:30;;;;;;;9.38;7.68;;;14.50;99.90;;;;;;5052803;28;20076;-73
2023/10/28 10:59:15;;;;;;;10.40;8.13;;;14.60;99.90;;;;;;5063662;28;20037;-73
2023/10/28 11:02:02;;;;;;;10.05;8.25;;;14.70;99.90;;;;;;5063055;28;20036;-73
2023/10/28 11:04:48;;;;;;;9.30;7.32;;;14.70;99.90;;;;;;5049638;28;20040;-75
2023/10/28 11:07:35;;;;;;;10.73;8.43;;;14.80;99.90;;;;;;5066617;28;20056;-73
2023/10/28 11:10:22;;;;;;;11.85;8.18;;;14.80;99.90;;;;;;5069891;28;20029;-74
2023/10/28 11:13:08;;;;;;;10.77;8.43;;;14.90;99.90;;;;;;5071139;28;20421;-73
2023/10/28 11:15:54;;;;;;;9.15;7.75;;;15.00;99.90;;;;;;5055732;28;20045;-74
2023/10/28 11:18:40;;;;;;;9.13;6.70;;;15.00;99.90;;;;;;5071134;28;20037;-73
2023/10/28 11:21:28;;;;;;;7.50;6.30;;;15.00;99.90;;;;;;5070196;28;20041;-73
2023/10/28 11:24:16;;;;;;;10.05;6.18;;;15.10;99.90;;;;;;5053053;28;20051;-73
2023/10/28 11:27:02;;;;;;;6.95;5.75;;;15.20;99.90;;;;;;5055033;28;20068;-74
2023/10/28 11:29:50;;;;;;;7.82;6.88;;;15.20;99.90;;;;;;5054996;28;20033;-73
2023/10/28 11:32:40;;;;;;;7.43;5.82;;;15.30;99.90;;;;;;5040338;28;20047;-73
2023/10/28 11:35:29;;;;;;;8.60;5.80;;;15.40;99.90;;;;;;5055344;28;20048;-74
2023/10/28 11:38:15;;;;;;;8.57;5.88;;;15.40;99.90;;;;;;5054760;28;20167;-73
2023/10/28 11:41:08;;;;;;;8.35;6.32;;;15.40;99.90;;;;;;5050307;28;20091;-73
2023/10/28 11:43:55;;;;;;;7.80;6.03;;;15.40;99.90;;;;;;5054000;28;20037;-73
2023/10/28 11:46:41;;;;;;;8.43;5.63;;;15.40;99.90;;;;;;5039651;28;20060;-73
2023/10/28 11:49:27;;;;;;;7.95;5.57;;;15.40;99.90;;;;;;5039725;28;20033;-73
2023/10/28 11:52:13;;;;;;;9.15;6.25;;;15.40;99.90;;;;;;5054318;28;20126;-72
2023/10/28 11:55:04;;;;;;;8.80;6.45;;;15.50;99.90;;;;;;5070649;28;20041;-72
2023/10/28 11:57:50;;;;;;;8.40;5.95;;;15.50;99.90;;;;;;5046053;28;20041;-71
2023/10/28 12:00:37;;;;;;;7.55;6.13;;;15.50;99.90;;;;;;5046387;28;20372;-72
2023/10/28 12:03:23;;;;;;;8.80;6.47;;;15.50;99.90;;;;;;5055132;28;20040;-72
2023/10/28 12:06:10;;;;;;;7.95;6.35;;;15.50;99.90;;;;;;5056893;28;20053;-72
2023/10/28 12:08:57;;;;;;;7.68;6.25;;;15.50;99.90;;;;;;5055974;28;20166;-72
2023/10/28 12:11:44;;;;;;;8.27;6.57;;;15.50;99.90;;;;;;5060848;28;20032;-72
2023/10/28 12:14:30;;;;;;;7.75;5.60;;;15.40;99.90;;;;;;5045718;28;20044;-72
2023/10/28 12:17:16;;;;;;;8.75;6.32;;;15.40;99.90;;;;;;5050352;28;20151;-72
2023/10/28 12:20:05;;;;;;;7.75;6.20;;;15.40;99.90;;;;;;5062053;28;20100;-72
2023/10/28 12:22:52;;;;;;;7.97;6.70;;;15.40;99.90;;;;;;5066723;28;20040;-72
2023/10/28 12:25:38;;;;;;;7.88;6.13;;;15.40;99.90;;;;;;5065151;28;20501;-72
2023/10/28 12:28:24;;;;;;;7.43;5.65;;;15.40;99.90;;;;;;5066073;28;20099;-73
2023/10/28 12:31:10;;;;;;;8.82;6.07;;;15.40;99.90;;;;;;5055877;28;20309;-75
2023/10/28 12:33:56;;;;;;;7.30;6.10;;;15.40;99.90;;;;;;5056716;28;20061;-78
2023/10/28 12:36:43;;;;;;;8.20;6.32;;;15.40;99.90;;;;;;5053034;28;20045;-78
2023/10/28 12:39:29;;;;;;;7.68;5.93;;;15.40;99.90;;;;;;5066536;28;20163;-79
2023/10/28 12:42:15;;;;;;;6.88;5.55;;;15.40;99.90;;;;;;5057132;28;20163;-77
2023/10/28 12:45:06;;;;;;;7.47;5.80;;;15.30;99.90;;;;;;5055541;28;20049;-79
2023/10/28 12:47:51;;;;;;;8.15;6.00;;;15.20;99.90;;;;;;5049580;28;20033;-78
2023/10/28 12:50:37;;;;;;;9.95;6.75;;;15.20;99.90;;;;;;5055327;28;20403;-78
2023/10/28 12:53:23;;;;;;;26.75;11.63;;;15.10;99.90;;;;;;5064781;28;20033;-79
2023/10/28 12:56:09;;;;;;;47.88;19.42;;;15.10;99.90;;;;;;5059788;28;20060;-78
2023/10/28 12:58:56;;;;;;;43.30;17.17;;;15.10;99.90;;;;;;5064184;28;20032;-77
2023/10/28 13:01:41;;;;;;;18.85;8.95;;;15.10;99.90;;;;;;5072997;28;20051;-78
2023/10/28 13:04:27;;;;;;;18.05;8.52;;;15.10;99.90;;;;;;5071903;28;20040;-78
2023/10/28 13:07:13;;;;;;;22.45;11.43;;;15.10;99.90;;;;;;5057959;28;20083;-77
2023/10/28 13:09:59;;;;;;;19.65;8.93;;;15.10;99.90;;;;;;5055250;28;20116;-78
2023/10/28 13:12:45;;;;;;;19.45;10.25;;;15.10;99.90;;;;;;5086712;28;20064;-71
2023/10/28 13:15:32;;;;;;;19.75;10.52;;;15.00;99.90;;;;;;5070217;28;20459;-70
2023/10/28 13:18:17;;;;;;;19.80;10.70;;;15.10;99.90;;;;;;5052100;28;20410;-71
2023/10/28 13:21:04;;;;;;;17.33;9.57;;;15.10;99.90;;;;;;5052099;28;20394;-70
2023/10/28 13:23:50;;;;;;;17.98;9.40;;;15.00;99.90;;;;;;5050657;28;20490;-71
2023/10/28 13:26:36;;;;;;;19.20;10.18;;;15.00;99.90;;;;;;5057471;28;20046;-71
2023/10/28 13:29:23;;;;;;;9.32;6.55;;;15.00;99.90;;;;;;5073357;28;20132;-78
2023/10/28 13:32:10;;;;;;;17.52;10.50;;;15.00;99.90;;;;;;5064359;28;20045;-77
2023/10/28 13:34:57;;;;;;;20.13;10.52;;;15.00;99.90;;;;;;5069686;28;20047;-78
2023/10/28 13:37:42;;;;;;;20.02;10.38;;;15.00;99.90;;;;;;5070961;28;20040;-78
2023/10/28 13:40:28;;;;;;;15.90;10.25;;;14.90;99.90;;;;;;5057507;28;20040;-78
2023/10/28 13:43:17;;;;;;;15.27;8.15;;;15.00;99.90;;;;;;5066550;28;20060;-78
2023/10/28 13:46:03;;;;;;;14.45;7.85;;;14.90;99.90;;;;;;5051892;28;20033;-78
2023/10/28 13:48:49;;;;;;;17.50;9.75;;;14.90;99.90;;;;;;5055376;28;20502;-78
2023/10/28 13:51:35;;;;;;;19.50;10.45;;;14.90;99.90;;;;;;5051294;28;20041;-78
2023/10/28 13:54:21;;;;;;;18.48;9.73;;;15.00;99.90;;;;;;5051416;28;20410;-78
2023/10/28 13:57:08;;;;;;;16.92;8.75;;;15.00;99.90;;;;;;5053282;28;20131;-77
2023/10/28 13:59:54;;;;;;;17.38;9.93;;;15.00;99.90;;;;;;5068164;28;20105;-74
2023/10/28 14:02:41;;;;;;;18.65;8.18;;;15.00;99.90;;;;;;5071593;28;20348;-75
2023/10/28 14:05:27;;;;;;;9.85;6.90;;;15.00;99.90;;;;;;5062775;28;20036;-72
2023/10/28 14:08:15;;;;;;;7.70;5.93;;;15.00;99.90;;;;;;5071521;28;20094;-72
2023/10/28 14:11:01;;;;;;;13.82;7.80;;;14.90;99.90;;;;;;5069853;28;20040;-70
2023/10/28 14:13:47;;;;;;;9.77;7.00;;;14.90;99.90;;;;;;5070939;28;20044;-71
2023/10/28 14:16:34;;;;;;;10.45;6.15;;;14.90;99.90;;;;;;5045236;28;20096;-71
2023/10/28 14:19:20;;;;;;;7.45;5.82;;;14.90;99.90;;;;;;5050538;28;20045;-71
2023/10/28 14:22:07;;;;;;;9.32;5.93;;;14.90;99.90;;;;;;5051892;28;20121;-71
2023/10/28 14:24:53;;;;;;;11.57;7.03;;;14.90;99.90;;;;;;5069757;28;20040;-74